createdAt,value
2022-12-18T00:00:22.871Z,73.12
2022-12-18T00:05:24.431Z,73.68
2022-12-18T00:10:25.830Z,73.95
2022-12-18T00:15:27.149Z,73.99
2022-12-18T00:20:29.517Z,74.46
2022-12-18T00:25:33.150Z,74.07
2022-12-18T00:30:34.562Z,73.39
2022-12-18T00:35:35.924Z,73.80
2022-12-18T00:40:37.432Z,72.99
2022-12-18T00:45:39.456Z,72.54
2022-12-18T00:50:41.386Z,72.97
2022-12-18T00:55:43.672Z,73.70
2022-12-18T01:00:45.148Z,74.04
2022-12-18T01:05:46.681Z,73.74
2022-12-18T01:10:48.106Z,73.58
2022-12-18T01:15:52.651Z,72.53
2022-12-18T01:20:54.375Z,73.39
2022-12-18T01:25:55.994Z,73.03
2022-12-18T01:30:57.363Z,73.23
2022-12-18T01:35:59.059Z,73.61
2022-12-18T01:41:01.489Z,73.66
2022-12-18T01:46:03.343Z,74.13
2022-12-18T01:51:06.987Z,74.23
2022-12-18T01:56:09.986Z,73.71
2022-12-18T02:01:11.792Z,73.93
2022-12-18T02:06:20.730Z,73.23
2022-12-18T02:11:34.930Z,74.13
2022-12-18T02:17:09.609Z,74.04
2022-12-18T02:22:30.354Z,74.24
2022-12-18T02:27:34.632Z,74.21
2022-12-18T02:32:40.716Z,73.88
2022-12-18T02:37:48.497Z,74.01
2022-12-18T02:42:50.260Z,72.43
2022-12-18T02:47:53.041Z,71.92
2022-12-18T02:53:02.777Z,72.65
2022-12-18T02:58:42.894Z,71.44
2022-12-18T03:03:58.566Z,72.18
2022-12-18T03:09:03.481Z,72.04
2022-12-18T03:14:07.936Z,72.60
2022-12-18T03:19:21.218Z,72.90
2022-12-18T03:24:24.791Z,72.88
2022-12-18T03:29:33.923Z,72.90
2022-12-18T03:34:39.324Z,71.06
2022-12-18T03:39:40.661Z,71.04
2022-12-18T03:44:42.153Z,70.85
2022-12-18T03:50:12.439Z,70.00
2022-12-18T03:55:14.694Z,69.12
2022-12-18T04:00:19.030Z,68.61
2022-12-18T04:05:21.567Z,68.73
2022-12-18T04:10:23.058Z,69.84
2022-12-18T04:15:25.114Z,70.54
2022-12-18T04:20:26.878Z,68.94
2022-12-18T04:25:28.261Z,68.56
2022-12-18T04:30:29.600Z,69.52
2022-12-18T04:35:31.226Z,69.70
2022-12-18T04:40:32.742Z,70.72
2022-12-18T04:45:34.235Z,71.64
2022-12-18T04:50:35.732Z,71.91
2022-12-18T04:55:37.377Z,72.30
2022-12-18T05:00:38.946Z,72.56
2022-12-18T05:05:40.454Z,72.78
2022-12-18T05:10:41.801Z,72.85
2022-12-18T05:15:43.308Z,72.59
2022-12-18T05:20:44.735Z,72.68
2022-12-18T05:26:01.179Z,71.83
2022-12-18T05:31:04.460Z,71.19
2022-12-18T05:36:08.482Z,71.62
2022-12-18T05:41:17.237Z,72.46
2022-12-18T05:46:19.618Z,72.50
2022-12-18T05:51:23.388Z,71.99
2022-12-18T05:56:25.050Z,72.00
2022-12-18T06:01:27.703Z,71.70
2022-12-18T06:06:29.807Z,71.84
2022-12-18T06:11:31.236Z,71.14
2022-12-18T06:16:34.139Z,71.60
2022-12-18T06:21:35.748Z,71.87
2022-12-18T06:26:39.693Z,71.99
2022-12-18T06:31:41.169Z,71.74
2022-12-18T06:36:42.730Z,71.99
2022-12-18T06:41:44.100Z,71.92
2022-12-18T06:46:45.593Z,71.82
2022-12-18T06:51:48.368Z,70.97
2022-12-18T06:56:51.342Z,71.45
2022-12-18T07:01:53.138Z,71.76
2022-12-18T07:06:54.756Z,71.23
2022-12-18T07:11:57.080Z,71.15
2022-12-18T07:16:59.298Z,71.38
2022-12-18T07:22:01.846Z,71.28
2022-12-18T07:27:03.530Z,71.54
2022-12-18T07:32:05.867Z,71.85
2022-12-18T07:37:07.628Z,70.58
2022-12-18T07:42:27.625Z,70.27
2022-12-18T07:47:29.887Z,69.94
2022-12-18T07:52:32.361Z,70.06
2022-12-18T07:57:50.107Z,69.89
2022-12-18T08:02:52.852Z,70.19
2022-12-18T08:07:55.213Z,70.61
2022-12-18T08:13:01.391Z,70.75
2022-12-18T08:18:09.052Z,70.73
2022-12-18T08:23:12.801Z,70.98
2022-12-18T08:28:17.221Z,71.06
2022-12-18T08:33:18.640Z,69.98
2022-12-18T08:38:20.402Z,70.72
2022-12-18T08:43:42.968Z,71.30
2022-12-18T08:48:45.272Z,71.39
2022-12-18T08:53:47.565Z,71.56
2022-12-18T08:58:52.661Z,71.49
2022-12-18T09:03:54.470Z,71.25
2022-12-18T09:08:55.860Z,70.68
2022-12-18T09:13:58.361Z,69.61
2022-12-18T09:19:00.446Z,69.80
2022-12-18T09:24:01.890Z,68.71
2022-12-18T09:29:04.327Z,69.01
2022-12-18T09:34:07.228Z,68.88
2022-12-18T09:39:09.153Z,68.50
2022-12-18T09:44:44.967Z,68.11
2022-12-18T09:49:50.743Z,67.48
2022-12-18T09:55:04.355Z,66.94
2022-12-18T10:00:12.254Z,66.07
2022-12-18T10:05:21.586Z,64.45
2022-12-18T10:10:47.471Z,64.92
2022-12-18T10:16:01.212Z,65.21
2022-12-18T10:21:12.814Z,64.31
2022-12-18T10:26:14.227Z,63.95
2022-12-18T10:31:24.306Z,62.40
2022-12-18T10:36:26.473Z,61.25
2022-12-18T10:41:29.530Z,59.79
2022-12-18T10:46:31.352Z,57.73
2022-12-18T10:51:36.376Z,57.32
2022-12-18T10:56:39.071Z,57.09
2022-12-18T11:01:49.497Z,54.98
2022-12-18T11:07:02.140Z,53.66
2022-12-18T11:12:15.952Z,51.52
2022-12-18T11:17:25.876Z,48.80
2022-12-18T11:22:37.101Z,45.90
2022-12-18T11:27:40.953Z,45.15
2022-12-18T11:32:46.522Z,44.50
2022-12-18T11:37:58.483Z,43.73
2022-12-18T11:43:27.225Z,44.79
2022-12-18T11:48:39.096Z,44.19
2022-12-18T11:53:41.011Z,46.35
2022-12-18T11:58:56.028Z,47.52
2022-12-18T12:04:15.619Z,47.93
2022-12-18T12:09:36.857Z,49.45
2022-12-18T12:15:05.821Z,51.37
2022-12-18T12:20:43.132Z,53.81
2022-12-18T12:25:53.880Z,54.76
2022-12-18T12:31:07.357Z,55.57
2022-12-18T12:36:11.993Z,56.31
2022-12-18T12:41:38.576Z,57.21
2022-12-18T12:46:44.132Z,57.94
2022-12-18T12:51:57.939Z,58.21
2022-12-18T12:57:21.385Z,60.37
2022-12-18T13:02:38.810Z,60.62
2022-12-18T13:07:49.084Z,61.52
2022-12-18T13:13:09.000Z,62.31
2022-12-18T13:18:10.583Z,62.48
2022-12-18T13:23:24.429Z,63.44
2022-12-18T13:28:49.176Z,62.85
2022-12-18T13:34:24.572Z,63.69
2022-12-18T13:39:18.448Z,63.87
2022-12-18T13:44:40.273Z,64.74
2022-12-18T13:49:45.519Z,64.90
2022-12-18T13:54:52.259Z,66.20
2022-12-18T13:59:54.009Z,66.88
2022-12-18T14:04:56.454Z,66.84
2022-12-18T14:10:12.631Z,68.17
2022-12-18T14:15:30.045Z,68.43
2022-12-18T14:20:36.855Z,68.82
2022-12-18T14:25:38.352Z,69.28
2022-12-18T14:30:42.699Z,70.05
2022-12-18T14:36:02.237Z,70.51
2022-12-18T14:41:11.734Z,70.87
2022-12-18T14:46:46.796Z,70.66
2022-12-18T14:51:51.721Z,71.14
2022-12-18T14:57:06.940Z,71.85
2022-12-18T15:02:23.523Z,71.92
2022-12-18T15:07:25.315Z,71.99
2022-12-18T15:12:34.617Z,72.30
2022-12-18T15:17:36.055Z,72.42
2022-12-18T15:22:37.904Z,72.35
2022-12-18T15:27:39.691Z,72.35
2022-12-18T15:32:44.748Z,72.11
2022-12-18T15:37:46.702Z,72.36
2022-12-18T15:43:08.529Z,72.65
2022-12-18T15:48:22.934Z,72.27
2022-12-18T15:53:26.476Z,72.05
2022-12-18T15:58:28.221Z,71.49
2022-12-18T16:03:29.953Z,71.77
2022-12-18T16:08:31.758Z,71.11
2022-12-18T16:13:33.185Z,71.10
2022-12-18T16:18:34.750Z,70.52
2022-12-18T16:23:36.116Z,70.22
2022-12-18T16:28:37.496Z,70.58
2022-12-18T16:33:39.666Z,70.75
2022-12-18T16:38:41.333Z,70.85
2022-12-18T16:43:44.270Z,71.33
2022-12-18T16:48:46.377Z,71.20
2022-12-18T16:53:47.749Z,71.16
2022-12-18T16:58:59.718Z,71.33
2022-12-18T17:04:05.730Z,71.71
2022-12-18T17:09:10.936Z,71.81
2022-12-18T17:14:18.943Z,71.60
2022-12-18T17:19:21.838Z,71.80
2022-12-18T17:24:23.508Z,72.63
2022-12-18T17:29:25.012Z,72.03
2022-12-18T17:34:27.851Z,72.22
2022-12-18T17:39:30.790Z,71.76
2022-12-18T17:44:34.714Z,72.16
2022-12-18T17:49:36.164Z,72.25
2022-12-18T17:54:40.182Z,72.02
2022-12-18T17:59:41.615Z,72.26
2022-12-18T18:04:43.160Z,72.36
2022-12-18T18:09:44.606Z,72.09
2022-12-18T18:14:46.176Z,72.28
2022-12-18T18:19:48.633Z,72.56
2022-12-18T18:24:51.602Z,72.50
2022-12-18T18:29:53.051Z,72.41
2022-12-18T18:34:55.638Z,72.20
2022-12-18T18:39:58.066Z,72.48
2022-12-18T18:44:59.579Z,72.78
2022-12-18T18:50:01.019Z,72.62
2022-12-18T18:55:13.285Z,72.27
2022-12-18T19:00:16.364Z,72.27
2022-12-18T19:05:18.035Z,72.32
2022-12-18T19:10:19.588Z,72.08
2022-12-18T19:15:21.799Z,72.35
2022-12-18T19:20:23.857Z,72.42
2022-12-18T19:25:38.587Z,71.88
2022-12-18T19:30:42.903Z,72.59
2022-12-18T19:35:44.676Z,72.88
2022-12-18T19:40:46.628Z,73.29
2022-12-18T19:45:55.005Z,72.91
2022-12-18T19:50:56.566Z,72.46
2022-12-18T19:55:59.816Z,72.36
2022-12-18T20:01:02.286Z,72.32
2022-12-18T20:06:29.709Z,72.07
2022-12-18T20:11:31.974Z,71.93
2022-12-18T20:16:34.391Z,72.17
2022-12-18T20:21:36.883Z,71.80
2022-12-18T20:26:38.357Z,71.99
2022-12-18T20:31:40.853Z,71.85
2022-12-18T20:36:42.274Z,71.88
2022-12-18T20:41:45.474Z,71.77
2022-12-18T20:46:46.879Z,71.16
2022-12-18T20:51:56.280Z,70.83
2022-12-18T20:56:57.872Z,70.61
2022-12-18T21:01:59.487Z,70.44
2022-12-18T21:07:03.074Z,70.97
2022-12-18T21:12:24.529Z,70.84
2022-12-18T21:17:28.341Z,69.96
2022-12-18T21:22:30.259Z,70.54
2022-12-18T21:27:31.789Z,69.76
2022-12-18T21:32:33.648Z,69.71
2022-12-18T21:37:35.358Z,70.15
2022-12-18T21:42:55.571Z,69.85
2022-12-18T21:47:57.290Z,69.80
2022-12-18T21:52:58.693Z,69.48
2022-12-18T21:57:59.991Z,70.07
2022-12-18T22:03:18.429Z,69.14
2022-12-18T22:08:20.662Z,69.35
2022-12-18T22:13:23.353Z,68.79
2022-12-18T22:18:24.799Z,68.92
2022-12-18T22:23:26.559Z,69.30
2022-12-18T22:28:49.594Z,69.66
2022-12-18T22:33:51.192Z,69.34
2022-12-18T22:38:52.764Z,69.58
2022-12-18T22:43:55.038Z,69.42
2022-12-18T22:48:56.435Z,69.73
2022-12-18T22:53:58.185Z,69.42
2022-12-18T22:59:00.151Z,69.50
2022-12-18T23:04:01.666Z,69.31
2022-12-18T23:09:03.742Z,68.87
2022-12-18T23:14:05.181Z,68.62
2022-12-18T23:19:07.161Z,68.54
2022-12-18T23:24:08.798Z,68.84
2022-12-18T23:29:10.359Z,68.66
2022-12-18T23:34:13.425Z,68.44
2022-12-18T23:39:17.959Z,68.40
2022-12-18T23:44:30.628Z,68.58
2022-12-18T23:49:32.132Z,68.66
2022-12-18T23:54:34.041Z,67.84
2022-12-18T23:59:35.701Z,68.40
